createdAt,value
2022-10-22T00:09:52.989Z,21.19
2022-10-22T00:14:58.208Z,21.17
2022-10-22T00:20:01.645Z,21.06
2022-10-22T00:25:05.598Z,20.98
2022-10-22T00:30:12.326Z,20.95
2022-10-22T00:35:15.854Z,20.96
2022-10-22T00:40:19.385Z,21.03
2022-10-22T00:45:26.238Z,21.03
2022-10-22T00:50:32.747Z,20.98
2022-10-22T00:55:36.461Z,20.90
2022-10-22T01:00:41.385Z,20.82
2022-10-22T01:06:05.472Z,20.82
2022-10-22T01:11:14.442Z,20.74
2022-10-22T01:16:23.752Z,20.76
2022-10-22T01:21:32.300Z,20.70
2022-10-22T01:26:45.243Z,20.71
2022-10-22T01:31:54.415Z,20.73
2022-10-22T01:36:59.054Z,20.75
2022-10-22T01:42:02.456Z,20.71
2022-10-22T01:47:17.003Z,20.73
2022-10-22T01:52:26.985Z,20.80
2022-10-22T01:57:35.730Z,20.92
2022-10-22T02:02:44.447Z,20.84
2022-10-22T02:07:50.790Z,20.87
2022-10-22T02:12:55.897Z,20.88
2022-10-22T02:18:01.162Z,20.84
2022-10-22T02:23:04.801Z,20.73
2022-10-22T02:28:14.623Z,20.79
2022-10-22T02:33:21.927Z,20.73
2022-10-22T02:38:26.387Z,20.68
2022-10-22T02:43:30.113Z,20.64
2022-10-22T02:48:34.887Z,20.79
2022-10-22T02:53:38.221Z,20.83
2022-10-22T02:58:41.562Z,20.82
2022-10-22T03:03:46.267Z,20.56
2022-10-22T03:08:49.910Z,20.82
2022-10-22T03:13:53.353Z,20.75
2022-10-22T03:18:58.086Z,20.95
2022-10-22T03:24:03.242Z,21.02
2022-10-22T03:29:06.894Z,20.87
2022-10-22T03:34:13.393Z,20.92
2022-10-22T03:39:17.881Z,20.88
2022-10-22T03:44:21.689Z,20.87
2022-10-22T03:49:26.499Z,20.86
2022-10-22T03:54:29.950Z,20.84
2022-10-22T03:59:36.086Z,20.81
2022-10-22T04:04:40.907Z,20.80
2022-10-22T04:09:44.247Z,20.84
2022-10-22T04:14:47.601Z,20.90
2022-10-22T04:19:52.323Z,20.74
2022-10-22T04:24:55.688Z,20.71
2022-10-22T04:29:59.077Z,20.75
2022-10-22T04:35:04.090Z,20.78
2022-10-22T04:40:08.946Z,20.75
2022-10-22T04:45:12.342Z,20.60
2022-10-22T04:50:17.297Z,20.50
2022-10-22T04:55:20.792Z,20.49
2022-10-22T05:00:24.265Z,20.54
2022-10-22T05:05:29.028Z,20.54
2022-10-22T05:10:32.481Z,20.65
2022-10-22T05:15:35.963Z,20.72
2022-10-22T05:20:41.773Z,20.78
2022-10-22T05:25:45.141Z,20.73
2022-10-22T05:30:54.341Z,20.73
2022-10-22T05:35:59.432Z,20.74
2022-10-22T05:41:04.002Z,20.73
2022-10-22T05:46:08.754Z,20.59
2022-10-22T05:51:14.688Z,20.62
2022-10-22T05:56:18.083Z,20.60
2022-10-22T06:01:23.714Z,20.61
2022-10-22T06:06:30.493Z,20.64
2022-10-22T06:11:35.294Z,20.64
2022-10-22T06:16:39.041Z,20.65
2022-10-22T06:21:44.182Z,20.44
2022-10-22T06:26:50.641Z,20.49
2022-10-22T06:31:54.078Z,20.53
2022-10-22T06:36:58.928Z,20.66
2022-10-22T06:42:02.332Z,20.80
2022-10-22T06:47:10.786Z,20.76
2022-10-22T06:52:15.512Z,20.86
2022-10-22T06:57:19.003Z,20.76
2022-10-22T07:02:22.670Z,20.76
2022-10-22T07:07:27.618Z,20.81
2022-10-22T07:12:31.071Z,21.12
2022-10-22T07:17:34.619Z,21.06
2022-10-22T07:22:39.865Z,21.13
2022-10-22T07:27:43.676Z,20.82
2022-10-22T07:32:47.243Z,21.15
2022-10-22T07:37:52.358Z,21.14
2022-10-22T07:42:55.783Z,21.17
2022-10-22T07:48:00.525Z,21.28
2022-10-22T07:53:05.382Z,21.39
2022-10-22T07:58:08.930Z,21.35
2022-10-22T08:03:13.189Z,21.57
2022-10-22T08:08:18.167Z,21.52
2022-10-22T08:13:22.473Z,21.77
2022-10-22T08:18:26.139Z,21.92
2022-10-22T08:23:30.989Z,22.17
2022-10-22T08:28:37.013Z,22.25
2022-10-22T08:33:40.905Z,22.58
2022-10-22T08:38:45.594Z,22.76
2022-10-22T08:44:12.156Z,22.83
2022-10-22T08:49:20.537Z,22.85
2022-10-22T08:54:31.817Z,23.13
2022-10-22T08:59:39.690Z,23.37
2022-10-22T09:04:47.858Z,23.27
2022-10-22T09:09:54.257Z,23.61
2022-10-22T09:14:57.637Z,23.74
2022-10-22T09:20:05.620Z,23.65
2022-10-22T09:25:20.872Z,23.92
2022-10-22T09:30:26.090Z,24.24
2022-10-22T09:35:29.853Z,24.50
2022-10-22T09:40:43.614Z,24.80
2022-10-22T09:45:47.521Z,25.00
2022-10-22T09:50:56.259Z,24.85
2022-10-22T09:56:02.166Z,25.23
2022-10-22T10:01:05.718Z,25.69
2022-10-22T10:06:09.410Z,25.52
2022-10-22T10:11:20.474Z,25.71
2022-10-22T10:16:34.015Z,25.20
2022-10-22T10:21:41.633Z,25.31
2022-10-22T10:26:50.866Z,25.22
2022-10-22T10:32:07.803Z,25.21
2022-10-22T10:37:19.123Z,25.42
2022-10-22T10:42:28.242Z,25.41
2022-10-22T10:48:07.278Z,26.16
2022-10-22T10:53:16.065Z,25.59
2022-10-22T10:58:27.042Z,25.71
2022-10-22T11:04:02.438Z,25.84
2022-10-22T11:09:08.751Z,25.85
2022-10-22T11:14:16.323Z,26.04
2022-10-22T11:19:27.816Z,26.00
2022-10-22T11:24:47.566Z,25.64
2022-10-22T11:29:55.891Z,25.66
2022-10-22T11:35:00.857Z,25.61
2022-10-22T11:40:06.969Z,26.14
2022-10-22T11:50:50.765Z,26.22
2022-10-22T11:55:55.573Z,26.14
2022-10-22T12:01:19.683Z,25.93
2022-10-22T12:06:25.216Z,25.70
2022-10-22T12:11:30.059Z,25.84
2022-10-22T12:16:55.286Z,25.16
2022-10-22T12:22:09.142Z,25.80
2022-10-22T12:27:23.304Z,26.28
2022-10-22T12:32:34.646Z,26.41
2022-10-22T12:37:39.873Z,26.64
2022-10-22T12:42:49.257Z,26.43
2022-10-22T12:47:54.053Z,26.46
2022-10-22T12:52:58.946Z,26.67
2022-10-22T12:58:06.605Z,26.84
2022-10-22T13:03:26.020Z,27.01
2022-10-22T13:08:30.932Z,26.98
2022-10-22T13:13:43.064Z,26.68
2022-10-22T13:18:48.981Z,26.25
2022-10-22T13:23:59.664Z,25.75
2022-10-22T13:29:04.786Z,26.35
2022-10-22T13:34:11.766Z,26.11
2022-10-22T13:39:19.710Z,26.13
2022-10-22T13:44:23.142Z,24.68
2022-10-22T13:49:26.516Z,25.71
2022-10-22T13:54:31.349Z,25.30
2022-10-22T13:59:34.788Z,25.73
2022-10-22T14:04:41.051Z,25.97
2022-10-22T14:09:45.757Z,25.88
2022-10-22T14:14:49.177Z,25.15
2022-10-22T14:19:52.570Z,25.60
2022-10-22T14:24:57.366Z,25.50
2022-10-22T14:30:00.760Z,25.60
2022-10-22T14:35:04.589Z,25.39
2022-10-22T14:40:10.678Z,25.88
2022-10-22T14:45:16.986Z,25.75
2022-10-22T14:50:20.438Z,25.87
2022-10-22T14:55:27.494Z,25.48
2022-10-22T15:00:30.901Z,25.58
2022-10-22T15:05:36.161Z,25.14
2022-10-22T15:10:41.416Z,24.85
2022-10-22T15:15:44.731Z,24.73
2022-10-22T15:20:55.912Z,24.68
2022-10-22T15:26:00.608Z,24.62
2022-10-22T15:31:04.150Z,24.35
2022-10-22T15:36:11.795Z,24.52
2022-10-22T15:41:16.471Z,24.34
2022-10-22T15:46:20.504Z,24.29
2022-10-22T15:51:23.859Z,24.12
2022-10-22T15:56:30.234Z,24.34
2022-10-22T16:01:34.595Z,24.30
2022-10-22T16:06:39.681Z,24.20
2022-10-22T16:11:44.722Z,24.29
2022-10-22T16:16:49.386Z,24.29
2022-10-22T16:21:54.541Z,23.69
2022-10-22T16:27:00.106Z,23.34
2022-10-22T16:32:03.461Z,23.93
2022-10-22T16:37:10.141Z,23.60
2022-10-22T16:42:15.187Z,23.58
2022-10-22T16:47:18.554Z,23.88
2022-10-22T16:52:21.927Z,23.81
2022-10-22T16:57:26.616Z,23.78
2022-10-22T17:02:29.960Z,23.41
2022-10-22T17:07:33.320Z,23.65
2022-10-22T17:12:38.179Z,23.75
2022-10-22T17:17:41.867Z,23.79
2022-10-22T17:22:45.278Z,23.59
2022-10-22T17:27:50.361Z,23.61
2022-10-22T17:32:53.713Z,23.57
2022-10-22T17:37:57.098Z,23.66
2022-10-22T17:43:01.867Z,23.63
2022-10-22T17:48:05.491Z,23.41
2022-10-22T17:53:08.957Z,23.58
2022-10-22T17:58:13.810Z,23.56
2022-10-22T18:03:17.246Z,23.55
2022-10-22T18:08:20.720Z,23.63
2022-10-22T18:13:25.505Z,23.47
2022-10-22T18:18:29.291Z,23.65
2022-10-22T18:23:33.231Z,23.57
2022-10-22T18:28:38.045Z,23.56
2022-10-22T18:33:41.731Z,23.52
2022-10-22T18:38:45.117Z,23.44
2022-10-22T18:43:52.200Z,23.34
2022-10-22T18:48:56.174Z,23.46
2022-10-22T18:54:05.730Z,23.44
2022-10-22T18:59:25.963Z,23.40
2022-10-22T19:04:33.187Z,23.35
2022-10-22T19:09:36.593Z,23.24
2022-10-22T19:14:41.625Z,23.15
2022-10-22T19:19:45.228Z,23.04
2022-10-22T19:24:50.109Z,23.02
2022-10-22T19:29:54.793Z,23.06
2022-10-22T19:34:58.165Z,22.94
2022-10-22T19:40:01.523Z,22.81
2022-10-22T19:45:08.111Z,22.72
2022-10-22T19:50:11.484Z,22.92
2022-10-22T19:55:15.309Z,22.78
2022-10-22T20:00:20.191Z,22.82
2022-10-22T20:10:32.228Z,22.86
2022-10-22T20:15:37.349Z,22.96
2022-10-22T20:20:40.886Z,22.99
2022-10-22T20:25:45.412Z,22.90
2022-10-22T20:30:50.158Z,22.79
2022-10-22T20:36:00.458Z,22.56
2022-10-22T20:41:05.316Z,22.49
2022-10-22T20:46:15.624Z,22.20
2022-10-22T20:51:19.057Z,22.00
2022-10-22T20:56:22.639Z,21.92
2022-10-22T21:01:28.447Z,21.77
2022-10-22T21:06:31.866Z,21.71
2022-10-22T21:11:35.738Z,21.57
2022-10-22T21:16:42.798Z,21.42
2022-10-22T21:21:46.365Z,21.27
2022-10-22T21:26:49.721Z,21.07
2022-10-22T21:31:54.828Z,20.96
2022-10-22T21:36:58.234Z,20.78
2022-10-22T21:42:01.607Z,20.61
2022-10-22T21:47:06.543Z,20.57
2022-10-22T21:52:09.905Z,20.45
2022-10-22T21:57:13.269Z,20.29
2022-10-22T22:02:18.121Z,20.29
2022-10-22T22:07:21.711Z,20.18
2022-10-22T22:12:25.110Z,20.05
2022-10-22T22:17:29.937Z,19.82
2022-10-22T22:22:33.334Z,19.69
2022-10-22T22:27:36.706Z,19.69
2022-10-22T22:32:42.352Z,19.62
2022-10-22T22:37:45.732Z,19.66
2022-10-22T22:42:49.666Z,19.66
2022-10-22T22:47:54.491Z,19.69
2022-10-22T22:52:58.054Z,19.69
2022-10-22T22:58:01.461Z,19.70
2022-10-22T23:03:06.319Z,19.64
2022-10-22T23:08:09.831Z,19.66
2022-10-22T23:13:13.208Z,19.65
2022-10-22T23:18:18.395Z,19.59
2022-10-22T23:23:21.758Z,19.53
2022-10-22T23:28:25.195Z,19.44
2022-10-22T23:33:29.965Z,19.40
2022-10-22T23:38:33.559Z,19.41
2022-10-22T23:43:37.783Z,19.38
2022-10-22T23:48:42.941Z,19.46
2022-10-22T23:53:47.435Z,19.40
2022-10-22T23:58:52.498Z,19.40
